createdAt,value
2017-03-04T00:00:03.966Z,17.4
2017-03-04T00:00:44.811Z,17.4
2017-03-04T00:01:25.615Z,17.44
2017-03-04T00:02:06.353Z,17.43
2017-03-04T00:02:47.075Z,17.43
2017-03-04T00:03:27.888Z,17.37
2017-03-04T00:04:08.673Z,17.48
2017-03-04T00:04:49.493Z,17.44
2017-03-04T00:05:30.272Z,17.37
2017-03-04T00:06:14.868Z,17.46
2017-03-04T00:06:55.655Z,17.41
2017-03-04T00:10:22.012Z,17.48
2017-03-04T00:11:02.733Z,17.37
2017-03-04T00:11:43.586Z,17.37
2017-03-04T00:12:24.398Z,17.46
2017-03-04T00:13:05.149Z,17.38
2017-03-04T00:13:45.868Z,17.4
2017-03-04T00:14:26.714Z,17.38
2017-03-04T00:15:07.465Z,17.37
2017-03-04T00:15:48.285Z,17.46
2017-03-04T00:16:29.068Z,17.46
2017-03-04T00:17:09.847Z,17.4
2017-03-04T00:17:50.635Z,17.33
2017-03-04T00:18:31.342Z,17.41
2017-03-04T00:19:12.111Z,17.36
2017-03-04T00:19:52.895Z,17.33
2017-03-04T00:20:33.680Z,17.44
2017-03-04T00:21:14.440Z,17.44
2017-03-04T00:21:55.260Z,17.49
2017-03-04T00:22:35.992Z,17.43
2017-03-04T00:23:16.806Z,17.4
2017-03-04T00:24:56.691Z,17.37
2017-03-04T00:25:54.627Z,17.51
2017-03-04T00:26:35.360Z,17.48
2017-03-04T00:27:16.081Z,17.49
2017-03-04T00:27:56.793Z,17.36
2017-03-04T00:28:37.563Z,17.37
2017-03-04T00:29:18.348Z,17.37
2017-03-04T00:29:59.079Z,17.51
2017-03-04T00:30:39.769Z,17.38
2017-03-04T00:31:20.572Z,17.43
2017-03-04T00:32:01.380Z,17.46
2017-03-04T00:32:42.190Z,17.44
2017-03-04T00:33:23.030Z,17.37
2017-03-04T00:34:03.759Z,17.46
2017-03-04T00:34:44.524Z,17.37
2017-03-04T00:35:25.223Z,17.46
2017-03-04T00:36:06.021Z,17.46
2017-03-04T00:36:46.814Z,17.33
2017-03-04T00:37:27.573Z,17.43
2017-03-04T00:38:08.332Z,17.43
2017-03-04T00:38:49.113Z,17.33
2017-03-04T00:39:29.909Z,17.48
2017-03-04T00:40:10.667Z,17.38
2017-03-04T00:40:51.393Z,17.46
2017-03-04T00:41:32.139Z,17.51
2017-03-04T00:42:12.859Z,17.48
2017-03-04T00:42:53.624Z,17.4
2017-03-04T00:43:34.359Z,17.33
2017-03-04T00:44:15.153Z,17.46
2017-03-04T00:44:55.954Z,17.4
2017-03-04T00:45:36.730Z,17.43
2017-03-04T00:46:17.455Z,17.51
2017-03-04T00:46:58.299Z,17.37
2017-03-04T00:47:39.112Z,17.49
2017-03-04T00:48:19.940Z,17.41
2017-03-04T00:49:00.649Z,17.33
2017-03-04T00:49:41.360Z,17.38
2017-03-04T00:50:22.129Z,17.49
2017-03-04T00:51:02.864Z,17.49
2017-03-04T00:51:43.612Z,17.51
2017-03-04T00:52:24.423Z,17.38
2017-03-04T00:53:05.463Z,17.46
2017-03-04T00:53:46.220Z,17.51
2017-03-04T00:54:29.480Z,17.46
2017-03-04T00:55:10.265Z,17.36
2017-03-04T00:55:51.909Z,17.38
2017-03-04T00:56:32.660Z,17.37
2017-03-04T00:57:13.453Z,17.49
2017-03-04T00:57:54.300Z,17.51
2017-03-04T00:58:35.031Z,17.4
2017-03-04T00:59:16.005Z,17.46
2017-03-04T00:59:56.769Z,17.31
2017-03-04T01:00:37.533Z,17.44
2017-03-04T01:01:18.298Z,17.46
2017-03-04T01:01:59.154Z,17.4
2017-03-04T01:02:39.893Z,17.46
2017-03-04T01:03:20.576Z,17.46
2017-03-04T01:04:01.302Z,17.46
2017-03-04T01:04:42.090Z,17.49
2017-03-04T01:05:22.891Z,17.46
2017-03-04T01:06:03.616Z,17.43
2017-03-04T01:06:44.448Z,17.43
2017-03-04T01:07:25.198Z,17.52
2017-03-04T01:08:06.044Z,17.41
2017-03-04T01:08:46.791Z,17.41
2017-03-04T01:09:27.501Z,17.44
2017-03-04T01:10:08.290Z,17.46
2017-03-04T01:10:49.022Z,17.51
2017-03-04T01:11:29.752Z,17.44
2017-03-04T01:12:10.514Z,17.44
2017-03-04T01:12:51.371Z,17.4
2017-03-04T01:13:32.078Z,17.41
2017-03-04T01:14:12.759Z,17.37
2017-03-04T01:14:53.478Z,17.43
2017-03-04T01:15:34.519Z,17.55
2017-03-04T01:16:15.329Z,17.41
2017-03-04T01:16:56.880Z,17.4
2017-03-04T01:17:37.634Z,17.38
2017-03-04T01:18:18.357Z,17.48
2017-03-04T01:18:59.102Z,17.41
2017-03-04T01:19:39.893Z,17.38
2017-03-04T01:20:20.658Z,17.36
2017-03-04T01:21:01.465Z,17.41
2017-03-04T01:21:42.208Z,17.48
2017-03-04T01:22:22.993Z,17.51
2017-03-04T01:23:03.741Z,17.4
2017-03-04T01:23:44.480Z,17.43
2017-03-04T01:24:25.239Z,17.41
2017-03-04T01:25:05.972Z,17.41
2017-03-04T01:25:46.731Z,17.4
2017-03-04T01:26:27.465Z,17.31
2017-03-04T01:27:08.175Z,17.44
2017-03-04T01:27:48.981Z,17.41
2017-03-04T01:28:29.702Z,17.44
2017-03-04T01:29:10.449Z,17.46
2017-03-04T01:29:51.217Z,17.44
2017-03-04T01:30:31.966Z,17.38
2017-03-04T01:31:12.810Z,17.43
2017-03-04T01:31:53.532Z,17.43
2017-03-04T01:32:34.236Z,17.4
2017-03-04T01:33:14.945Z,17.37
2017-03-04T01:33:55.663Z,17.46
2017-03-04T01:34:36.441Z,17.43
2017-03-04T01:35:17.197Z,17.41
2017-03-04T01:35:58.041Z,17.44
2017-03-04T01:36:38.776Z,17.41
2017-03-04T01:37:19.522Z,17.37
2017-03-04T01:38:00.345Z,17.43
2017-03-04T01:38:41.223Z,17.43
2017-03-04T01:39:21.956Z,17.49
2017-03-04T01:40:02.667Z,17.4
2017-03-04T01:40:43.465Z,17.46
2017-03-04T01:41:24.201Z,17.38
2017-03-04T01:42:05.448Z,17.44
2017-03-04T01:42:46.159Z,17.43
2017-03-04T01:43:26.988Z,17.49
2017-03-04T01:44:07.722Z,17.43
2017-03-04T01:44:48.503Z,17.41
2017-03-04T01:45:29.274Z,17.51
2017-03-04T01:46:09.998Z,17.41
2017-03-04T01:46:50.739Z,17.36
2017-03-04T01:47:31.537Z,17.4
2017-03-04T01:48:12.282Z,17.48
2017-03-04T01:48:53.118Z,17.43
2017-03-04T01:49:33.950Z,17.51
2017-03-04T01:50:14.740Z,17.41
2017-03-04T01:50:55.424Z,17.36
2017-03-04T01:51:36.211Z,17.41
2017-03-04T01:52:17.605Z,17.41
2017-03-04T01:52:58.370Z,17.44
2017-03-04T01:53:39.888Z,17.4
2017-03-04T01:54:19.871Z,17.41
2017-03-04T01:55:00.705Z,17.4
2017-03-04T01:55:41.433Z,17.48
2017-03-04T01:56:22.156Z,17.4
2017-03-04T01:57:02.874Z,17.38
2017-03-04T01:57:43.680Z,17.41
2017-03-04T01:58:24.409Z,17.43
2017-03-04T01:59:05.225Z,17.4
2017-03-04T01:59:45.918Z,17.54
2017-03-04T02:00:27.395Z,17.54
2017-03-04T02:01:08.129Z,17.43
2017-03-04T02:01:48.906Z,17.51
2017-03-04T02:02:29.630Z,17.49
2017-03-04T02:03:10.387Z,17.49
2017-03-04T02:03:51.132Z,17.4
2017-03-04T02:04:31.992Z,17.37
2017-03-04T02:05:12.819Z,17.46
2017-03-04T02:05:53.610Z,17.48
2017-03-04T02:06:34.416Z,17.51
2017-03-04T02:07:15.127Z,17.37
2017-03-04T02:07:55.875Z,17.44
2017-03-04T02:08:36.626Z,17.54
2017-03-04T02:09:17.429Z,17.41
2017-03-04T02:09:58.161Z,17.46
2017-03-04T02:10:38.950Z,17.41
2017-03-04T02:11:19.686Z,17.41
2017-03-04T02:12:00.428Z,17.44
2017-03-04T02:12:41.216Z,17.43
2017-03-04T02:13:22.051Z,17.48
2017-03-04T02:14:02.841Z,17.37
2017-03-04T02:14:43.607Z,17.46
2017-03-04T02:15:24.353Z,17.4
2017-03-04T02:16:05.073Z,17.44
2017-03-04T02:16:45.784Z,17.41
2017-03-04T02:17:26.520Z,17.49
2017-03-04T02:18:07.331Z,17.4
2017-03-04T02:18:48.106Z,17.51
2017-03-04T02:19:28.941Z,17.41
2017-03-04T02:20:09.641Z,17.38
2017-03-04T02:20:50.447Z,17.46
2017-03-04T02:21:31.189Z,17.37
2017-03-04T02:22:11.849Z,17.49
2017-03-04T02:22:52.619Z,17.4
2017-03-04T02:23:33.384Z,17.41
2017-03-04T02:24:21.242Z,17.44
2017-03-04T02:25:01.964Z,17.43
2017-03-04T02:25:42.721Z,17.41
2017-03-04T02:26:23.519Z,17.44
2017-03-04T02:27:04.284Z,17.52
2017-03-04T02:27:44.962Z,17.37
2017-03-04T02:28:25.693Z,17.44
2017-03-04T02:29:06.454Z,17.4
2017-03-04T02:29:47.240Z,17.38
2017-03-04T02:30:28.059Z,17.44
2017-03-04T02:31:08.746Z,17.41
2017-03-04T02:31:49.458Z,17.41
2017-03-04T02:32:30.211Z,17.44
2017-03-04T02:33:11.042Z,17.51
2017-03-04T02:33:51.720Z,17.49
2017-03-04T02:34:32.451Z,17.4
2017-03-04T02:35:13.302Z,17.44
2017-03-04T02:35:54.043Z,17.43
2017-03-04T02:36:34.796Z,17.41
2017-03-04T02:37:15.544Z,17.52
2017-03-04T02:37:56.254Z,17.41
2017-03-04T02:38:37.037Z,17.41
2017-03-04T02:39:17.759Z,17.38
2017-03-04T02:39:58.545Z,17.43
2017-03-04T02:40:39.281Z,17.4
2017-03-04T02:41:20.033Z,17.41
2017-03-04T02:42:00.812Z,17.41
2017-03-04T02:42:41.584Z,17.4
2017-03-04T02:43:22.334Z,17.41
2017-03-04T02:44:03.095Z,17.46
2017-03-04T02:44:43.832Z,17.44
2017-03-04T02:45:24.580Z,17.56
2017-03-04T02:46:05.421Z,17.43
2017-03-04T02:46:46.245Z,17.44
2017-03-04T02:47:26.996Z,17.4
2017-03-04T02:48:07.684Z,17.38
2017-03-04T02:48:48.411Z,17.4
2017-03-04T02:49:29.179Z,17.43
2017-03-04T02:50:09.869Z,17.43
2017-03-04T02:50:50.643Z,17.38
2017-03-04T02:51:31.445Z,17.51
2017-03-04T02:52:12.180Z,17.46
2017-03-04T02:52:52.907Z,17.43
2017-03-04T02:53:33.783Z,17.37
2017-03-04T02:54:21.537Z,17.43
2017-03-04T02:55:02.298Z,17.43
2017-03-04T02:55:43.268Z,17.4
2017-03-04T02:56:24.045Z,17.48
2017-03-04T02:57:04.748Z,17.4
2017-03-04T02:57:45.531Z,17.43
2017-03-04T02:58:26.285Z,17.43
2017-03-04T02:59:07.049Z,17.43
2017-03-04T02:59:47.748Z,17.4
2017-03-04T03:00:28.521Z,17.49
2017-03-04T03:01:09.300Z,17.38
2017-03-04T03:01:50.008Z,17.43
2017-03-04T03:02:30.744Z,17.41
2017-03-04T03:03:11.441Z,17.41
2017-03-04T03:03:52.137Z,17.46
2017-03-04T03:04:32.952Z,17.43
2017-03-04T03:05:13.685Z,17.4
2017-03-04T03:05:54.439Z,17.44
2017-03-04T03:06:35.294Z,17.41
2017-03-04T03:07:16.070Z,17.38
2017-03-04T03:07:56.834Z,17.49
2017-03-04T03:08:37.540Z,17.51
2017-03-04T03:09:18.198Z,17.38
2017-03-04T03:09:59.037Z,17.33
2017-03-04T03:10:39.768Z,17.46
2017-03-04T03:11:20.526Z,17.34
2017-03-04T03:12:01.288Z,17.44
2017-03-04T03:12:42.023Z,17.37
2017-03-04T03:13:22.777Z,17.49
2017-03-04T03:14:03.559Z,17.51
2017-03-04T03:14:44.337Z,17.37
2017-03-04T03:15:25.011Z,17.36
2017-03-04T03:16:05.802Z,17.48
2017-03-04T03:16:46.588Z,17.38
2017-03-04T03:17:27.294Z,17.49
2017-03-04T03:18:08.054Z,17.44
2017-03-04T03:18:48.786Z,17.37
2017-03-04T03:19:29.552Z,17.4
2017-03-04T03:20:10.323Z,17.36
2017-03-04T03:20:51.093Z,17.4
2017-03-04T03:21:31.868Z,17.46
2017-03-04T03:22:12.565Z,17.46
2017-03-04T03:22:53.296Z,17.38
2017-03-04T03:23:34.057Z,17.34
2017-03-04T03:24:14.816Z,17.46
2017-03-04T03:24:55.559Z,17.48
2017-03-04T03:25:36.202Z,17.46
2017-03-04T03:26:16.977Z,17.48
2017-03-04T03:26:57.791Z,17.38
2017-03-04T03:27:38.518Z,17.36
2017-03-04T03:28:19.306Z,17.38
2017-03-04T03:29:00.110Z,17.41
2017-03-04T03:29:40.812Z,17.41
2017-03-04T03:30:21.565Z,17.46
2017-03-04T03:31:02.325Z,17.41
2017-03-04T03:31:43.049Z,17.44
2017-03-04T03:32:23.908Z,17.41
2017-03-04T03:33:04.654Z,17.41
2017-03-04T03:33:45.489Z,17.41
2017-03-04T03:34:26.230Z,17.37
2017-03-04T03:35:07.081Z,17.41
2017-03-04T03:35:47.823Z,17.38
2017-03-04T03:36:28.541Z,17.37
2017-03-04T03:37:09.260Z,17.41
2017-03-04T03:37:49.975Z,17.43
2017-03-04T03:38:30.697Z,17.33
2017-03-04T03:39:11.398Z,17.41
2017-03-04T03:39:52.287Z,17.43
2017-03-04T03:40:33.015Z,17.4
2017-03-04T03:41:13.727Z,17.38
2017-03-04T03:41:54.535Z,17.4
2017-03-04T03:42:35.317Z,17.41
2017-03-04T03:43:16.102Z,17.41
2017-03-04T03:43:56.772Z,17.41
2017-03-04T03:44:37.548Z,17.4
2017-03-04T03:45:18.306Z,17.37
2017-03-04T03:45:59.072Z,17.4
2017-03-04T03:46:39.819Z,17.37
2017-03-04T03:47:20.523Z,17.38
2017-03-04T03:48:01.348Z,17.33
2017-03-04T03:48:42.144Z,17.33
2017-03-04T03:49:22.975Z,17.36
2017-03-04T03:50:03.723Z,17.31
2017-03-04T03:50:44.520Z,17.4
2017-03-04T03:51:25.327Z,17.36
2017-03-04T03:52:06.116Z,17.34
2017-03-04T03:52:46.848Z,17.31
2017-03-04T03:53:27.665Z,17.36
2017-03-04T03:54:08.426Z,17.3
2017-03-04T06:34:51.153Z,17.01
2017-03-04T06:35:31.876Z,17.03
2017-03-04T06:36:12.588Z,17.08
2017-03-04T06:36:53.392Z,17.04
2017-03-04T06:37:34.184Z,17.06
2017-03-04T06:38:14.888Z,17.12
2017-03-04T06:38:55.649Z,17.03
2017-03-04T06:39:36.431Z,17.06
2017-03-04T06:40:17.208Z,17.01
2017-03-04T06:40:57.953Z,17.08
2017-03-04T06:41:38.659Z,17
2017-03-04T06:42:19.386Z,17.03
2017-03-04T06:43:00.126Z,17.01
2017-03-04T06:43:40.877Z,17.06
2017-03-04T06:44:21.671Z,17.04
2017-03-04T06:45:02.374Z,16.97
2017-03-04T06:45:43.113Z,16.98
2017-03-04T06:46:23.991Z,17.01
2017-03-04T06:47:04.740Z,17
2017-03-04T06:47:45.420Z,17.06
2017-03-04T06:48:26.213Z,17
2017-03-04T06:49:06.917Z,17.11
2017-03-04T06:49:47.686Z,17.07
2017-03-04T06:50:28.473Z,17.14
2017-03-04T06:51:09.275Z,17.03
2017-03-04T06:51:50.064Z,17.04
2017-03-04T06:52:30.793Z,17.06
2017-03-04T06:53:11.548Z,17.11
2017-03-04T06:53:52.242Z,17.07
2017-03-04T06:54:33.004Z,17.07
2017-03-04T06:55:13.675Z,17.11
2017-03-04T06:55:54.424Z,17.07
2017-03-04T06:56:35.136Z,17.16
2017-03-04T06:57:15.899Z,17.14
2017-03-04T06:57:56.671Z,17.08
2017-03-04T06:58:37.390Z,17.14
2017-03-04T06:59:18.203Z,17.16
2017-03-04T06:59:58.947Z,17.19
2017-03-04T07:00:39.677Z,17.23
2017-03-04T07:01:20.381Z,17.34
2017-03-04T07:02:01.191Z,17.33
2017-03-04T07:02:41.930Z,17.4
2017-03-04T07:03:22.713Z,17.48
2017-03-04T07:04:03.439Z,17.38
2017-03-04T07:04:44.226Z,17.33
2017-03-04T07:05:25.028Z,17.4
2017-03-04T15:20:37.717Z,18.5
2017-03-04T15:21:18.458Z,18.45
2017-03-04T15:21:59.213Z,18.52
2017-03-04T15:22:39.989Z,18.54
2017-03-04T15:23:20.708Z,18.52
2017-03-04T15:24:01.522Z,18.48
2017-03-04T15:24:42.295Z,18.45
2017-03-04T15:25:22.995Z,18.5
2017-03-04T15:26:03.764Z,18.52
2017-03-04T15:26:44.509Z,18.44
2017-03-04T15:27:25.374Z,18.54
2017-03-04T15:28:06.116Z,18.42
2017-03-04T15:28:47.601Z,18.45
2017-03-04T15:29:28.372Z,18.5
2017-03-04T15:30:09.910Z,18.45
2017-03-04T15:30:51.628Z,18.51
2017-03-04T15:31:32.302Z,18.47
2017-03-04T15:32:13.928Z,18.48
2017-03-04T15:32:55.612Z,18.48
2017-03-04T15:57:47.696Z,18.25
2017-03-04T15:58:36.971Z,18.26
2017-03-04T15:59:17.571Z,18.21
2017-03-04T15:59:58.293Z,18.18
2017-03-04T16:00:39.176Z,18.23
2017-03-04T16:01:19.878Z,18.23
2017-03-04T16:02:00.698Z,18.23
2017-03-04T16:02:41.391Z,18.18
2017-03-04T16:03:22.161Z,18.26
2017-03-04T16:04:02.903Z,18.23
2017-03-04T16:04:43.636Z,18.25
2017-03-04T16:05:24.486Z,18.25
2017-03-04T16:06:05.213Z,18.18
2017-03-04T16:06:45.971Z,18.23
2017-03-04T16:07:26.669Z,18.14
2017-03-04T16:08:07.402Z,18.25
2017-03-04T16:08:48.249Z,18.17
2017-03-04T16:09:29.110Z,18.15
2017-03-04T16:10:09.907Z,18.15
2017-03-04T16:10:50.647Z,18.18
2017-03-04T16:11:31.413Z,18.15
2017-03-04T16:12:12.177Z,18.08
2017-03-04T16:12:52.849Z,18.1
2017-03-04T16:13:33.613Z,18.12
2017-03-04T16:14:14.405Z,18.11
2017-03-04T16:14:55.195Z,18.15
2017-03-04T16:15:35.895Z,18.12
2017-03-04T16:16:16.740Z,18.14
2017-03-04T16:16:57.401Z,18.11
2017-03-04T16:17:38.141Z,18.11
2017-03-04T16:18:18.961Z,18.11
2017-03-04T16:18:59.735Z,18.08
2017-03-04T16:19:40.525Z,18.12
2017-03-04T16:20:21.215Z,18.1
2017-03-04T16:21:01.990Z,18.12
2017-03-04T16:21:42.794Z,18.07
2017-03-04T16:22:23.627Z,18.15
2017-03-04T16:23:04.501Z,18.21
2017-03-04T16:23:45.206Z,18.11
2017-03-04T16:24:25.936Z,18.17
2017-03-04T16:25:06.693Z,18.15
2017-03-04T16:25:47.432Z,18.21
2017-03-04T16:26:35.147Z,18.17
2017-03-04T16:27:15.860Z,18.15
2017-03-04T16:27:56.552Z,18.08
2017-03-04T16:28:37.255Z,18.08
2017-03-04T16:29:17.983Z,18.15
2017-03-04T16:29:58.781Z,18.11
2017-03-04T16:30:39.524Z,18.07
2017-03-04T16:31:20.259Z,18.08
2017-03-04T16:32:01.008Z,18.11
2017-03-04T16:32:41.706Z,18
2017-03-04T16:33:22.469Z,18.1
2017-03-04T16:34:03.158Z,18.11
2017-03-04T16:34:43.964Z,18.05
2017-03-04T16:35:24.829Z,18.03
2017-03-04T16:36:05.628Z,18.11
2017-03-04T16:36:46.401Z,18.03
2017-03-04T16:37:27.184Z,18.08
2017-03-04T16:38:07.943Z,18.12
2017-03-04T16:38:48.717Z,18.03
2017-03-04T16:39:29.497Z,17.99
2017-03-04T16:40:10.294Z,18.02
2017-03-04T16:40:51.027Z,17.97
2017-03-04T16:41:31.869Z,18.08
2017-03-04T16:42:12.730Z,18.03
2017-03-04T16:42:53.436Z,18.08
2017-03-04T16:43:34.243Z,18.07
2017-03-04T16:44:15.040Z,17.97
2017-03-04T16:44:55.870Z,18.08
2017-03-04T16:45:36.632Z,18.02
2017-03-04T16:46:17.483Z,18.02
2017-03-04T16:46:58.209Z,17.99
2017-03-04T16:47:38.966Z,17.99
2017-03-04T16:48:19.669Z,17.97
2017-03-04T16:49:00.421Z,17.95
2017-03-04T16:49:41.141Z,18.07
2017-03-04T16:50:21.939Z,18
2017-03-04T16:51:02.715Z,17.93
2017-03-04T16:51:43.504Z,17.97
2017-03-04T16:52:24.307Z,18
2017-03-04T16:53:05.081Z,17.97
2017-03-04T16:53:45.894Z,17.96
2017-03-04T16:54:26.680Z,17.99
2017-03-04T16:55:07.409Z,18
2017-03-04T16:55:48.180Z,18.02
2017-03-04T16:56:28.940Z,17.97
2017-03-04T16:57:12.321Z,18.12
2017-03-04T16:57:53.083Z,17.99
2017-03-04T16:58:34.546Z,17.96
2017-03-04T16:59:14.628Z,17.99
2017-03-04T16:59:55.343Z,18.07
2017-03-04T17:00:36.149Z,18.05
2017-03-04T17:01:16.887Z,18.05
2017-03-04T17:01:57.621Z,17.97
2017-03-04T17:02:38.373Z,18.02
2017-03-04T17:03:19.111Z,18.08
2017-03-04T17:03:59.868Z,18.08
2017-03-04T17:04:40.626Z,18.08
2017-03-04T17:05:21.364Z,17.96
2017-03-04T17:06:02.184Z,17.96
2017-03-04T17:06:42.957Z,17.95
2017-03-04T17:07:24.557Z,17.99
2017-03-04T17:08:04.531Z,18.02
2017-03-04T17:08:45.300Z,17.97
2017-03-04T17:09:26.051Z,17.96
2017-03-04T17:10:06.859Z,17.9
2017-03-04T17:10:48.300Z,17.89
2017-03-04T17:11:29.090Z,17.9
2017-03-04T17:12:09.878Z,17.89
2017-03-04T17:12:51.540Z,17.99
2017-03-04T17:13:31.370Z,17.96
2017-03-04T17:14:12.123Z,17.93
2017-03-04T17:14:52.915Z,17.96
2017-03-04T17:15:39.042Z,17.93
2017-03-04T17:16:21.537Z,17.9
2017-03-04T17:17:02.684Z,17.87
2017-03-04T17:17:43.466Z,17.97
2017-03-04T17:18:26.828Z,17.92
2017-03-04T17:19:10.162Z,17.9
2017-03-04T17:19:50.956Z,17.92
2017-03-04T17:20:31.766Z,18
2017-03-04T17:21:16.571Z,17.9
2017-03-04T17:21:56.697Z,17.9
2017-03-04T17:22:37.358Z,17.93
2017-03-04T17:23:21.040Z,17.92
2017-03-04T17:24:00.586Z,17.95
2017-03-04T17:24:43.730Z,17.92
2017-03-04T17:25:27.444Z,18
2017-03-04T17:26:09.055Z,17.9
2017-03-04T17:27:00.556Z,17.97
2017-03-04T17:27:41.426Z,17.96
2017-03-04T17:28:23.050Z,17.89
2017-03-04T17:29:03.653Z,17.87
2017-03-04T17:29:46.048Z,17.95
2017-03-04T17:30:29.179Z,17.95
2017-03-04T17:31:11.540Z,17.92
2017-03-04T17:31:56.560Z,17.92
2017-03-04T17:32:37.378Z,17.86
2017-03-04T17:33:19.545Z,17.96
2017-03-04T17:34:01.569Z,17.97
2017-03-04T17:34:41.457Z,17.89
2017-03-04T17:35:22.218Z,17.96
2017-03-04T17:36:03.535Z,17.9
2017-03-04T17:36:46.562Z,17.89
2017-03-04T17:37:30.055Z,17.9
2017-03-04T17:38:17.332Z,17.95
2017-03-04T17:39:01.791Z,17.86
2017-03-04T17:39:44.777Z,17.96
2017-03-04T17:40:28.197Z,17.95
2017-03-04T17:41:09.908Z,17.93
2017-03-04T17:41:52.262Z,17.89
2017-03-04T17:42:33.023Z,17.86
2017-03-04T17:43:13.732Z,17.92
2017-03-04T17:43:54.556Z,17.95
2017-03-04T17:44:35.282Z,17.87
2017-03-04T17:45:16.017Z,17.82
2017-03-04T17:45:56.858Z,17.9
2017-03-04T17:46:37.678Z,17.93
2017-03-04T17:47:18.390Z,17.9
2017-03-04T17:47:59.096Z,17.93
2017-03-04T17:48:39.800Z,17.86
2017-03-04T17:49:20.565Z,17.89
2017-03-04T17:50:01.269Z,17.89
2017-03-04T17:50:41.987Z,17.78
2017-03-04T17:51:22.770Z,17.79
2017-03-04T17:52:03.575Z,17.79
2017-03-04T17:52:44.380Z,17.84
2017-03-04T17:53:25.138Z,17.9
2017-03-04T17:54:05.985Z,17.82
2017-03-04T17:54:46.766Z,17.9
2017-03-04T17:55:27.624Z,17.93
2017-03-04T17:56:08.472Z,17.87
2017-03-04T17:56:49.281Z,17.92
2017-03-04T17:57:30.041Z,17.87
2017-03-04T17:58:10.881Z,17.92
2017-03-04T17:58:51.556Z,17.89
2017-03-04T17:59:32.353Z,17.92
2017-03-04T18:00:13.207Z,17.87
2017-03-04T18:00:53.896Z,17.86
2017-03-04T18:01:34.732Z,17.86
2017-03-04T18:02:15.520Z,17.81
2017-03-04T18:02:56.244Z,17.9
2017-03-04T18:03:36.977Z,17.84
2017-03-04T18:04:17.744Z,17.84
2017-03-04T18:04:58.535Z,17.87
2017-03-04T18:05:39.304Z,17.9
2017-03-04T18:06:20.102Z,17.79
2017-03-04T18:07:00.912Z,17.78
2017-03-04T18:07:41.650Z,17.81
2017-03-04T18:08:22.425Z,17.82
2017-03-04T18:09:03.272Z,17.77
2017-03-04T18:09:44.064Z,17.78
2017-03-04T18:10:24.873Z,17.82
2017-03-04T18:11:05.675Z,17.78
2017-03-04T18:11:46.458Z,17.78
2017-03-04T18:12:27.281Z,17.79
2017-03-04T18:13:08.079Z,17.75
2017-03-04T18:13:48.874Z,17.75
2017-03-04T18:14:29.630Z,17.81
2017-03-04T18:15:10.499Z,17.79
2017-03-04T18:15:51.310Z,17.81
2017-03-04T18:16:32.105Z,17.79
2017-03-04T18:17:12.866Z,17.74
2017-03-04T18:17:53.612Z,17.75
2017-03-04T18:18:34.399Z,17.82
2017-03-04T18:19:15.083Z,17.81
2017-03-04T18:19:55.899Z,17.78
2017-03-04T18:20:36.672Z,17.81
2017-03-04T18:21:17.417Z,17.79
2017-03-04T18:21:58.178Z,17.78
2017-03-04T18:22:39.080Z,17.77
2017-03-04T18:23:19.898Z,17.77
2017-03-04T18:24:00.674Z,17.7
2017-03-04T18:24:41.467Z,17.77
2017-03-04T18:25:22.250Z,17.75
2017-03-04T18:26:02.953Z,17.75
2017-03-04T18:26:43.705Z,17.81
2017-03-04T18:27:31.356Z,17.77
2017-03-04T18:28:12.112Z,17.74
2017-03-04T18:28:52.829Z,17.77
2017-03-04T18:29:33.583Z,17.77
2017-03-04T18:30:14.385Z,17.77
2017-03-04T18:30:55.202Z,17.75
2017-03-04T18:31:35.929Z,17.71
2017-03-04T18:32:16.652Z,17.77
2017-03-04T18:32:57.389Z,17.74
2017-03-04T18:33:38.118Z,17.75
2017-03-04T18:34:18.895Z,17.68
2017-03-04T18:34:59.619Z,17.66
2017-03-04T18:35:40.424Z,17.68
2017-03-04T18:36:21.211Z,17.71
2017-03-04T18:37:01.926Z,17.7
2017-03-04T18:37:43.342Z,17.68
2017-03-04T18:38:24.107Z,17.7
2017-03-04T18:39:04.955Z,17.71
2017-03-04T18:39:45.695Z,17.68
2017-03-04T18:40:26.533Z,17.68
2017-03-04T18:41:07.222Z,17.74
2017-03-04T18:41:48.078Z,17.68
2017-03-04T18:42:28.795Z,17.75
2017-03-04T18:43:09.502Z,17.68
2017-03-04T18:43:50.315Z,17.63
2017-03-04T18:44:31.091Z,17.71
2017-03-04T18:45:11.844Z,17.74
2017-03-04T18:45:53.231Z,17.59
2017-03-04T18:46:34.028Z,17.68
2017-03-04T18:47:15.708Z,17.63
2017-03-04T18:47:56.527Z,17.64
2017-03-04T18:48:37.350Z,17.62
2017-03-04T18:49:18.156Z,17.71
2017-03-04T18:49:58.922Z,17.66
2017-03-04T18:50:39.640Z,17.68
2017-03-04T18:51:20.390Z,17.68
2017-03-04T18:52:01.216Z,17.63
2017-03-04T18:52:41.919Z,17.63
2017-03-04T18:53:22.662Z,17.62
2017-03-04T18:54:03.439Z,17.63
2017-03-04T18:54:44.259Z,17.62
2017-03-04T18:55:25.014Z,17.64
2017-03-04T18:56:05.785Z,17.71
2017-03-04T18:56:46.551Z,17.72
2017-03-04T18:57:27.374Z,17.66
2017-03-04T18:58:08.084Z,17.63
2017-03-04T18:58:48.888Z,17.63
2017-03-04T18:59:29.611Z,17.59
2017-03-04T19:00:10.391Z,17.63
2017-03-04T19:00:51.134Z,17.63
2017-03-04T19:01:31.940Z,17.64
2017-03-04T19:02:12.736Z,17.62
2017-03-04T19:02:53.547Z,17.63
2017-03-04T19:03:34.383Z,17.66
2017-03-04T19:04:15.145Z,17.64
2017-03-04T19:04:56.853Z,17.62
2017-03-04T19:05:37.568Z,17.56
2017-03-04T19:06:18.357Z,17.66
2017-03-04T19:06:59.172Z,17.64
2017-03-04T19:07:39.982Z,17.59
2017-03-04T19:08:20.752Z,17.58
2017-03-04T19:09:02.120Z,17.55
2017-03-04T19:09:42.297Z,17.58
2017-03-04T19:10:23.060Z,17.68
2017-03-04T19:11:03.783Z,17.55
2017-03-04T19:11:44.616Z,17.59
2017-03-04T19:12:25.411Z,17.58
2017-03-04T19:13:06.184Z,17.59
2017-03-04T19:13:46.967Z,17.55
2017-03-04T19:14:28.604Z,17.56
2017-03-04T19:15:09.321Z,17.54
2017-03-04T19:15:50.160Z,17.63
2017-03-04T19:16:30.880Z,17.59
2017-03-04T19:17:11.683Z,17.59
2017-03-04T19:17:52.467Z,17.54
2017-03-04T19:18:33.260Z,17.59
2017-03-04T19:19:14.123Z,17.58
2017-03-04T19:19:54.863Z,17.56
2017-03-04T19:20:35.615Z,17.59
2017-03-04T19:21:16.398Z,17.58
2017-03-04T19:21:57.158Z,17.64
2017-03-04T19:22:38.605Z,17.49
2017-03-04T19:23:18.752Z,17.48
2017-03-04T19:23:59.664Z,17.54
2017-03-04T19:24:40.448Z,17.52
2017-03-04T19:25:21.206Z,17.64
2017-03-04T19:26:01.979Z,17.54
2017-03-04T19:26:42.844Z,17.55
2017-03-04T19:27:30.173Z,17.49
2017-03-04T19:28:10.951Z,17.54
2017-03-04T19:28:51.693Z,17.54
2017-03-04T19:29:32.474Z,17.49
2017-03-04T19:30:13.223Z,17.48
2017-03-04T19:30:53.966Z,17.54
2017-03-04T19:31:34.773Z,17.54
2017-03-04T19:32:15.550Z,17.52
2017-03-04T19:32:56.290Z,17.52
2017-03-04T19:33:37.031Z,17.52
2017-03-04T19:34:17.791Z,17.52
2017-03-04T19:34:58.610Z,17.46
2017-03-04T19:35:39.419Z,17.51
2017-03-04T19:36:20.151Z,17.49
2017-03-04T19:37:00.892Z,17.44
2017-03-04T19:37:41.620Z,17.46
2017-03-04T19:38:22.389Z,17.51
2017-03-04T19:39:03.257Z,17.44
2017-03-04T19:39:44.034Z,17.51
2017-03-04T19:40:24.851Z,17.51
2017-03-04T19:41:05.656Z,17.46
2017-03-04T19:41:46.368Z,17.51
2017-03-04T19:42:27.181Z,17.48
2017-03-04T19:43:07.878Z,17.44
2017-03-04T19:43:48.714Z,17.49
2017-03-04T19:44:29.475Z,17.49
2017-03-04T19:45:10.265Z,17.54
2017-03-04T19:45:51.060Z,17.51
2017-03-04T19:46:31.797Z,17.48
2017-03-04T19:47:12.607Z,17.48
2017-03-04T19:47:53.373Z,17.49
2017-03-04T19:48:34.207Z,17.54
2017-03-04T19:49:14.963Z,17.54
2017-03-04T19:49:55.732Z,17.51
2017-03-04T19:50:36.499Z,17.43
2017-03-04T19:51:17.213Z,17.52
2017-03-04T19:51:57.953Z,17.52
2017-03-04T19:52:38.717Z,17.52
2017-03-04T19:53:19.455Z,17.44
2017-03-04T19:54:00.222Z,17.44
2017-03-04T19:54:41.040Z,17.49
2017-03-04T19:55:21.784Z,17.49
2017-03-04T19:56:02.576Z,17.54
2017-03-04T19:56:43.329Z,17.43
2017-03-04T19:57:39.071Z,17.43
2017-03-04T19:58:19.856Z,17.38
2017-03-04T19:59:00.639Z,17.58
2017-03-04T19:59:41.364Z,17.51
2017-03-04T20:00:22.211Z,17.52
2017-03-04T20:01:02.979Z,17.43
2017-03-04T20:01:43.720Z,17.44
2017-03-04T20:02:24.555Z,17.49
2017-03-04T20:03:05.353Z,17.43
2017-03-04T20:03:46.109Z,17.44
2017-03-04T20:04:26.820Z,17.54
2017-03-04T20:05:07.639Z,17.4
2017-03-04T20:05:48.365Z,17.44
2017-03-04T20:06:29.116Z,17.54
2017-03-04T20:07:09.876Z,17.51
2017-03-04T20:07:50.600Z,17.46
2017-03-04T20:08:31.536Z,17.41
2017-03-04T20:09:12.472Z,17.41
2017-03-04T20:09:53.339Z,17.41
2017-03-04T20:10:34.082Z,17.41
2017-03-04T20:11:14.832Z,17.41
2017-03-04T20:11:55.634Z,17.4